sensor_id;sensor_type;location;lat;lon;timestamp;temperature;humidity
42803;DHT22;28447;48.682;9.022;2023-09-19T04:00:44;15.10;99.90
42803;DHT22;28447;48.682;9.022;2023-09-19T04:03:10;15.10;99.90
42803;DHT22;28447;48.682;9.022;2023-09-19T04:05:45;15.20;99.90
42803;DHT22;28447;48.682;9.022;2023-09-19T04:08:11;15.20;99.90
42803;DHT22;28447;48.682;9.022;2023-09-19T04:10:37;15.20;99.90
42803;DHT22;28447;48.682;9.022;2023-09-19T04:13:03;15.30;99.90
42803;DHT22;28447;48.682;9.022;2023-09-19T04:15:29;15.30;99.90
42803;DHT22;28447;48.682;9.022;2023-09-19T04:17:55;15.30;99.90
42803;DHT22;28447;48.682;9.022;2023-09-19T04:20:21;15.30;99.90
42803;DHT22;28447;48.682;9.022;2023-09-19T04:22:48;15.30;99.90
42803;DHT22;28447;48.682;9.022;2023-09-19T04:25:14;15.30;99.90
42803;DHT22;28447;48.682;9.022;2023-09-19T04:27:40;15.30;99.90
42803;DHT22;28447;48.682;9.022;2023-09-19T04:30:07;15.20;99.90
42803;DHT22;28447;48.682;9.022;2023-09-19T04:32:40;15.30;99.90
42803;DHT22;28447;48.682;9.022;2023-09-19T04:35:09;15.30;99.90
42803;DHT22;28447;48.682;9.022;2023-09-19T04:37:37;15.40;99.90
42803;DHT22;28447;48.682;9.022;2023-09-19T04:40:05;15.40;99.90
42803;DHT22;28447;48.682;9.022;2023-09-19T04:42:31;15.40;99.90
42803;DHT22;28447;48.682;9.022;2023-09-19T04:44:57;15.40;99.90
42803;DHT22;28447;48.682;9.022;2023-09-19T04:47:25;15.40;99.90
42803;DHT22;28447;48.682;9.022;2023-09-19T04:49:51;15.40;99.90
42803;DHT22;28447;48.682;9.022;2023-09-19T04:52:17;15.40;99.90
42803;DHT22;28447;48.682;9.022;2023-09-19T04:54:42;15.40;99.90
42803;DHT22;28447;48.682;9.022;2023-09-19T04:57:08;15.40;99.90
42803;DHT22;28447;48.682;9.022;2023-09-19T04:59:34;15.30;99.90
42803;DHT22;28447;48.682;9.022;2023-09-19T05:01:59;15.30;99.90
42803;DHT22;28447;48.682;9.022;2023-09-19T05:04:25;15.20;99.90
42803;DHT22;28447;48.682;9.022;2023-09-19T05:06:50;15.10;99.90
42803;DHT22;28447;48.682;9.022;2023-09-19T05:09:16;15.00;99.90
42803;DHT22;28447;48.682;9.022;2023-09-19T05:11:45;15.00;99.90
42803;DHT22;28447;48.682;9.022;2023-09-19T05:14:11;15.00;99.90
42803;DHT22;28447;48.682;9.022;2023-09-19T05:16:37;15.00;99.90
42803;DHT22;28447;48.682;9.022;2023-09-19T05:19:03;14.90;99.90
42803;DHT22;28447;48.682;9.022;2023-09-19T05:21:29;14.90;99.90
42803;DHT22;28447;48.682;9.022;2023-09-19T05:23:56;14.90;99.90
42803;DHT22;28447;48.682;9.022;2023-09-19T05:26:22;14.90;99.90
42803;DHT22;28447;48.682;9.022;2023-09-19T05:28:47;15.00;99.90
42803;DHT22;28447;48.682;9.022;2023-09-19T05:31:16;14.90;99.90
42803;DHT22;28447;48.682;9.022;2023-09-19T05:33:42;15.00;99.90
42803;DHT22;28447;48.682;9.022;2023-09-19T05:36:08;15.00;99.90
42803;DHT22;28447;48.682;9.022;2023-09-19T05:38:36;15.00;99.90
42803;DHT22;28447;48.682;9.022;2023-09-19T05:41:02;15.00;99.90
42803;DHT22;28447;48.682;9.022;2023-09-19T05:43:28;15.10;99.90
42803;DHT22;28447;48.682;9.022;2023-09-19T05:45:53;15.10;99.90
42803;DHT22;28447;48.682;9.022;2023-09-19T05:48:22;15.10;99.90
42803;DHT22;28447;48.682;9.022;2023-09-19T05:50:47;15.20;99.90
42803;DHT22;28447;48.682;9.022;2023-09-19T05:53:14;15.20;99.90
42803;DHT22;28447;48.682;9.022;2023-09-19T05:55:40;15.20;99.90
42803;DHT22;28447;48.682;9.022;2023-09-19T05:58:06;15.20;99.90
42803;DHT22;28447;48.682;9.022;2023-09-19T06:00:32;15.20;99.90
42803;DHT22;28447;48.682;9.022;2023-09-19T06:02:59;15.20;99.90
42803;DHT22;28447;48.682;9.022;2023-09-19T06:05:26;15.10;99.90
42803;DHT22;28447;48.682;9.022;2023-09-19T06:07:57;14.90;99.90
42803;DHT22;28447;48.682;9.022;2023-09-19T06:10:26;14.90;99.90
42803;DHT22;28447;48.682;9.022;2023-09-19T06:12:54;14.70;99.90
42803;DHT22;28447;48.682;9.022;2023-09-19T06:15:21;14.70;99.90
42803;DHT22;28447;48.682;9.022;2023-09-19T06:17:52;14.60;99.90
42803;DHT22;28447;48.682;9.022;2023-09-19T06:20:21;14.60;99.90
42803;DHT22;28447;48.682;9.022;2023-09-19T06:22:48;14.50;99.90
42803;DHT22;28447;48.682;9.022;2023-09-19T06:25:17;14.40;99.90
42803;DHT22;28447;48.682;9.022;2023-09-19T06:27:48;14.40;99.90
42803;DHT22;28447;48.682;9.022;2023-09-19T06:30:23;14.50;99.90
42803;DHT22;28447;48.682;9.022;2023-09-19T06:32:58;14.60;99.90
42803;DHT22;28447;48.682;9.022;2023-09-19T06:35:24;14.60;99.90
42803;DHT22;28447;48.682;9.022;2023-09-19T06:37:51;14.60;99.90
42803;DHT22;28447;48.682;9.022;2023-09-19T06:40:18;14.90;99.90
42803;DHT22;28447;48.682;9.022;2023-09-19T06:42:52;14.90;99.90
42803;DHT22;28447;48.682;9.022;2023-09-19T06:45:21;14.80;99.90
42803;DHT22;28447;48.682;9.022;2023-09-19T06:47:52;14.90;99.90
42803;DHT22;28447;48.682;9.022;2023-09-19T06:50:18;15.00;99.90
42803;DHT22;28447;48.682;9.022;2023-09-19T07:31:56;15.80;99.90
42803;DHT22;28447;48.682;9.022;2023-09-19T07:34:22;15.90;99.90
42803;DHT22;28447;48.682;9.022;2023-09-19T07:36:49;15.90;99.90
42803;DHT22;28447;48.682;9.022;2023-09-19T07:39:15;16.00;99.90
42803;DHT22;28447;48.682;9.022;2023-09-19T07:41:41;16.10;99.90
42803;DHT22;28447;48.682;9.022;2023-09-19T07:44:07;16.00;99.90
42803;DHT22;28447;48.682;9.022;2023-09-19T07:46:35;16.00;99.90
42803;DHT22;28447;48.682;9.022;2023-09-19T07:49:01;16.20;99.90
42803;DHT22;28447;48.682;9.022;2023-09-19T07:51:26;16.30;99.90
42803;DHT22;28447;48.682;9.022;2023-09-19T07:53:52;16.30;99.90
42803;DHT22;28447;48.682;9.022;2023-09-19T07:56:18;16.40;99.90
42803;DHT22;28447;48.682;9.022;2023-09-19T07:58:46;16.50;99.90
42803;DHT22;28447;48.682;9.022;2023-09-19T08:03:39;16.90;99.90
42803;DHT22;28447;48.682;9.022;2023-09-19T08:06:11;17.00;99.90
42803;DHT22;28447;48.682;9.022;2023-09-19T08:08:37;17.20;99.90
42803;DHT22;28447;48.682;9.022;2023-09-19T08:13:37;17.20;99.90
42803;DHT22;28447;48.682;9.022;2023-09-19T08:16:06;17.00;99.90
42803;DHT22;28447;48.682;9.022;2023-09-19T08:18:32;17.10;99.90
42803;DHT22;28447;48.682;9.022;2023-09-19T08:20:58;17.40;99.90
42803;DHT22;28447;48.682;9.022;2023-09-19T08:23:26;17.50;99.90
42803;DHT22;28447;48.682;9.022;2023-09-19T08:25:56;17.20;99.90
42803;DHT22;28447;48.682;9.022;2023-09-19T08:28:22;17.00;99.90
42803;DHT22;28447;48.682;9.022;2023-09-19T08:30:50;16.90;99.90
42803;DHT22;28447;48.682;9.022;2023-09-19T08:33:16;17.10;99.90
42803;DHT22;28447;48.682;9.022;2023-09-19T08:38:09;17.30;99.90
42803;DHT22;28447;48.682;9.022;2023-09-19T08:40:39;17.40;99.90
42803;DHT22;28447;48.682;9.022;2023-09-19T08:43:06;17.60;99.90
42803;DHT22;28447;48.682;9.022;2023-09-19T08:45:33;17.70;99.90
42803;DHT22;28447;48.682;9.022;2023-09-19T09:06:23;19.00;99.90
42803;DHT22;28447;48.682;9.022;2023-09-19T09:31:04;19.30;99.90
42803;DHT22;28447;48.682;9.022;2023-09-19T09:51:50;19.60;99.90
42803;DHT22;28447;48.682;9.022;2023-09-19T10:13:08;19.80;99.90
42803;DHT22;28447;48.682;9.022;2023-09-19T10:23:11;20.10;99.90
42803;DHT22;28447;48.682;9.022;2023-09-19T12:04:40;23.00;99.90
42803;DHT22;28447;48.682;9.022;2023-09-19T12:07:14;23.30;99.90
42803;DHT22;28447;48.682;9.022;2023-09-19T12:09:45;23.20;99.90
42803;DHT22;28447;48.682;9.022;2023-09-19T12:12:26;23.40;99.90
42803;DHT22;28447;48.682;9.022;2023-09-19T12:15:01;25.20;99.90
42803;DHT22;28447;48.682;9.022;2023-09-19T12:17:42;26.40;99.90
42803;DHT22;28447;48.682;9.022;2023-09-19T15:16:12;27.20;98.90
42803;DHT22;28447;48.682;9.022;2023-09-19T15:18:40;26.00;98.40
42803;DHT22;28447;48.682;9.022;2023-09-19T15:40:58;23.00;99.90
42803;DHT22;28447;48.682;9.022;2023-09-19T15:43:23;22.20;99.90
42803;DHT22;28447;48.682;9.022;2023-09-19T16:17:41;22.00;99.90
42803;DHT22;28447;48.682;9.022;2023-09-19T16:20:06;21.90;99.90
42803;DHT22;28447;48.682;9.022;2023-09-19T16:22:33;22.30;99.90
42803;DHT22;28447;48.682;9.022;2023-09-19T17:31:08;19.30;99.90
42803;DHT22;28447;48.682;9.022;2023-09-19T17:33:34;19.40;99.90
42803;DHT22;28447;48.682;9.022;2023-09-19T17:36:07;19.30;99.90
42803;DHT22;28447;48.682;9.022;2023-09-19T17:38:36;19.30;99.90
42803;DHT22;28447;48.682;9.022;2023-09-19T17:41:06;19.30;99.90
42803;DHT22;28447;48.682;9.022;2023-09-19T17:43:34;19.10;99.90
42803;DHT22;28447;48.682;9.022;2023-09-19T17:46:14;19.10;99.90
42803;DHT22;28447;48.682;9.022;2023-09-19T17:48:41;19.10;99.90
42803;DHT22;28447;48.682;9.022;2023-09-19T17:51:09;18.90;99.90
42803;DHT22;28447;48.682;9.022;2023-09-19T17:53:39;18.70;99.90
42803;DHT22;28447;48.682;9.022;2023-09-19T17:56:06;18.80;99.90
42803;DHT22;28447;48.682;9.022;2023-09-19T17:58:38;18.70;99.90
42803;DHT22;28447;48.682;9.022;2023-09-19T18:01:12;18.60;99.90
42803;DHT22;28447;48.682;9.022;2023-09-19T18:03:38;18.50;99.90
42803;DHT22;28447;48.682;9.022;2023-09-19T18:06:04;18.30;99.90
42803;DHT22;28447;48.682;9.022;2023-09-19T18:08:30;18.10;99.90
42803;DHT22;28447;48.682;9.022;2023-09-19T18:10:56;18.00;99.90
42803;DHT22;28447;48.682;9.022;2023-09-19T18:13:23;17.90;99.90
42803;DHT22;28447;48.682;9.022;2023-09-19T18:15:48;17.80;99.90
42803;DHT22;28447;48.682;9.022;2023-09-19T18:18:14;17.70;99.90
42803;DHT22;28447;48.682;9.022;2023-09-19T18:20:40;17.60;99.90
42803;DHT22;28447;48.682;9.022;2023-09-19T18:23:07;17.60;99.90
42803;DHT22;28447;48.682;9.022;2023-09-19T18:25:34;17.50;99.90
42803;DHT22;28447;48.682;9.022;2023-09-19T18:28:01;17.60;99.90
42803;DHT22;28447;48.682;9.022;2023-09-19T18:30:29;17.60;99.90
42803;DHT22;28447;48.682;9.022;2023-09-19T18:32:54;17.60;99.90
42803;DHT22;28447;48.682;9.022;2023-09-19T18:35:21;17.50;99.90
42803;DHT22;28447;48.682;9.022;2023-09-19T18:37:49;17.40;99.90
42803;DHT22;28447;48.682;9.022;2023-09-19T18:40:17;17.20;99.90
42803;DHT22;28447;48.682;9.022;2023-09-19T18:42:43;17.10;99.90
42803;DHT22;28447;48.682;9.022;2023-09-19T18:45:09;16.90;99.90
42803;DHT22;28447;48.682;9.022;2023-09-19T18:47:38;16.80;99.90
42803;DHT22;28447;48.682;9.022;2023-09-19T18:50:04;16.60;99.90
42803;DHT22;28447;48.682;9.022;2023-09-19T18:52:30;16.50;99.90
42803;DHT22;28447;48.682;9.022;2023-09-19T18:54:56;16.40;99.90
42803;DHT22;28447;48.682;9.022;2023-09-19T18:57:22;16.30;99.90
42803;DHT22;28447;48.682;9.022;2023-09-19T18:59:51;16.20;99.90
42803;DHT22;28447;48.682;9.022;2023-09-19T20:10:46;14.60;99.90
42803;DHT22;28447;48.682;9.022;2023-09-19T20:13:12;14.60;99.90
42803;DHT22;28447;48.682;9.022;2023-09-19T20:15:39;14.50;99.90
42803;DHT22;28447;48.682;9.022;2023-09-19T20:18:06;14.50;99.90
42803;DHT22;28447;48.682;9.022;2023-09-19T20:20:37;14.50;99.90
42803;DHT22;28447;48.682;9.022;2023-09-19T20:23:03;14.50;99.90
42803;DHT22;28447;48.682;9.022;2023-09-19T20:25:29;14.40;99.90
42803;DHT22;28447;48.682;9.022;2023-09-19T20:27:55;14.40;99.90
42803;DHT22;28447;48.682;9.022;2023-09-19T20:30:21;14.40;99.90
42803;DHT22;28447;48.682;9.022;2023-09-19T20:32:49;14.50;99.90
42803;DHT22;28447;48.682;9.022;2023-09-19T20:35:17;14.60;99.90
42803;DHT22;28447;48.682;9.022;2023-09-19T20:37:43;14.50;99.90
42803;DHT22;28447;48.682;9.022;2023-09-19T20:40:15;14.30;99.90
42803;DHT22;28447;48.682;9.022;2023-09-19T20:42:46;14.30;99.90
42803;DHT22;28447;48.682;9.022;2023-09-19T20:45:11;14.20;99.90
42803;DHT22;28447;48.682;9.022;2023-09-19T20:47:41;14.20;99.90
42803;DHT22;28447;48.682;9.022;2023-09-19T20:50:10;14.20;99.90
42803;DHT22;28447;48.682;9.022;2023-09-19T20:52:37;14.10;99.90
42803;DHT22;28447;48.682;9.022;2023-09-19T20:55:06;14.10;99.90
42803;DHT22;28447;48.682;9.022;2023-09-19T20:57:33;14.00;99.90
42803;DHT22;28447;48.682;9.022;2023-09-19T20:59:59;14.00;99.90
42803;DHT22;28447;48.682;9.022;2023-09-19T21:02:25;14.00;99.90
42803;DHT22;28447;48.682;9.022;2023-09-19T21:04:50;14.10;99.90
42803;DHT22;28447;48.682;9.022;2023-09-19T21:07:17;14.00;99.90
42803;DHT22;28447;48.682;9.022;2023-09-19T21:09:43;13.90;99.90
42803;DHT22;28447;48.682;9.022;2023-09-19T21:12:08;13.90;99.90
